sensor_id;sensor_type;location;lat;lon;timestamp;P1;durP1;ratioP1;P2;durP2;ratioP2
23498;SDS011;11926;48.120;11.562;2023-08-01T00:00:58;5.00;;;2.67;;
23498;SDS011;11926;48.120;11.562;2023-08-01T00:03:47;5.07;;;2.80;;
23498;SDS011;11926;48.120;11.562;2023-08-01T00:06:35;5.10;;;2.40;;
23498;SDS011;11926;48.120;11.562;2023-08-01T00:09:25;4.78;;;2.75;;
23498;SDS011;11926;48.120;11.562;2023-08-01T00:12:14;5.35;;;2.33;;
23498;SDS011;11926;48.120;11.562;2023-08-01T00:15:03;5.03;;;2.78;;
23498;SDS011;11926;48.120;11.562;2023-08-01T00:17:52;4.35;;;2.28;;
23498;SDS011;11926;48.120;11.562;2023-08-01T00:20:40;4.47;;;2.38;;
23498;SDS011;11926;48.120;11.562;2023-08-01T00:23:28;4.32;;;2.60;;
23498;SDS011;11926;48.120;11.562;2023-08-01T00:26:17;5.00;;;2.53;;
23498;SDS011;11926;48.120;11.562;2023-08-01T00:29:06;5.45;;;2.53;;
23498;SDS011;11926;48.120;11.562;2023-08-01T00:31:54;5.85;;;2.88;;
23498;SDS011;11926;48.120;11.562;2023-08-01T00:34:42;4.78;;;2.30;;
23498;SDS011;11926;48.120;11.562;2023-08-01T00:37:31;5.53;;;2.60;;
23498;SDS011;11926;48.120;11.562;2023-08-01T00:40:19;6.28;;;2.55;;
23498;SDS011;11926;48.120;11.562;2023-08-01T00:43:09;4.32;;;2.28;;
23498;SDS011;11926;48.120;11.562;2023-08-01T00:45:58;5.72;;;2.88;;
23498;SDS011;11926;48.120;11.562;2023-08-01T00:48:48;6.05;;;2.78;;
23498;SDS011;11926;48.120;11.562;2023-08-01T00:51:38;5.65;;;2.58;;
23498;SDS011;11926;48.120;11.562;2023-08-01T00:54:26;5.00;;;2.85;;
23498;SDS011;11926;48.120;11.562;2023-08-01T00:57:21;5.25;;;2.70;;
23498;SDS011;11926;48.120;11.562;2023-08-01T01:00:12;4.60;;;3.13;;
23498;SDS011;11926;48.120;11.562;2023-08-01T01:03:01;9.20;;;3.90;;
23498;SDS011;11926;48.120;11.562;2023-08-01T01:05:53;7.85;;;3.58;;
23498;SDS011;11926;48.120;11.562;2023-08-01T01:08:45;7.32;;;2.80;;
23498;SDS011;11926;48.120;11.562;2023-08-01T01:11:34;5.90;;;3.03;;
23498;SDS011;11926;48.120;11.562;2023-08-01T01:14:23;6.90;;;2.85;;
23498;SDS011;11926;48.120;11.562;2023-08-01T01:17:13;7.65;;;2.83;;
23498;SDS011;11926;48.120;11.562;2023-08-01T01:20:01;4.82;;;2.70;;
23498;SDS011;11926;48.120;11.562;2023-08-01T01:22:51;6.10;;;2.92;;
23498;SDS011;11926;48.120;11.562;2023-08-01T01:25:41;6.50;;;2.72;;
23498;SDS011;11926;48.120;11.562;2023-08-01T01:28:31;5.95;;;3.10;;
23498;SDS011;11926;48.120;11.562;2023-08-01T01:31:20;4.18;;;2.55;;
23498;SDS011;11926;48.120;11.562;2023-08-01T01:34:08;4.57;;;2.40;;
23498;SDS011;11926;48.120;11.562;2023-08-01T01:36:57;7.55;;;2.47;;
23498;SDS011;11926;48.120;11.562;2023-08-01T01:39:47;6.88;;;3.03;;
23498;SDS011;11926;48.120;11.562;2023-08-01T01:42:36;5.90;;;2.60;;
23498;SDS011;11926;48.120;11.562;2023-08-01T01:45:24;4.70;;;2.75;;
23498;SDS011;11926;48.120;11.562;2023-08-01T01:48:13;3.92;;;2.45;;
23498;SDS011;11926;48.120;11.562;2023-08-01T01:51:01;4.97;;;2.75;;
23498;SDS011;11926;48.120;11.562;2023-08-01T01:53:49;5.05;;;2.58;;
23498;SDS011;11926;48.120;11.562;2023-08-01T01:56:39;5.50;;;2.78;;
23498;SDS011;11926;48.120;11.562;2023-08-01T01:59:27;6.15;;;2.80;;
23498;SDS011;11926;48.120;11.562;2023-08-01T02:02:15;4.93;;;2.95;;
23498;SDS011;11926;48.120;11.562;2023-08-01T02:05:04;4.68;;;3.00;;
23498;SDS011;11926;48.120;11.562;2023-08-01T02:07:53;4.93;;;2.80;;
23498;SDS011;11926;48.120;11.562;2023-08-01T02:10:41;5.57;;;3.20;;
23498;SDS011;11926;48.120;11.562;2023-08-01T02:13:32;6.65;;;3.10;;
23498;SDS011;11926;48.120;11.562;2023-08-01T02:16:20;6.88;;;3.10;;
23498;SDS011;11926;48.120;11.562;2023-08-01T02:22:14;5.93;;;3.08;;
23498;SDS011;11926;48.120;11.562;2023-08-01T02:25:05;5.95;;;3.15;;
23498;SDS011;11926;48.120;11.562;2023-08-01T02:27:56;5.70;;;3.35;;
23498;SDS011;11926;48.120;11.562;2023-08-01T02:30:46;7.40;;;3.45;;
23498;SDS011;11926;48.120;11.562;2023-08-01T02:33:36;4.68;;;3.17;;
23498;SDS011;11926;48.120;11.562;2023-08-01T02:36:26;6.88;;;2.72;;
23498;SDS011;11926;48.120;11.562;2023-08-01T02:39:14;5.70;;;3.15;;
23498;SDS011;11926;48.120;11.562;2023-08-01T02:42:02;4.85;;;3.00;;
23498;SDS011;11926;48.120;11.562;2023-08-01T02:44:52;4.80;;;2.88;;
23498;SDS011;11926;48.120;11.562;2023-08-01T02:47:42;5.55;;;3.42;;
23498;SDS011;11926;48.120;11.562;2023-08-01T02:50:30;4.68;;;3.00;;
23498;SDS011;11926;48.120;11.562;2023-08-01T02:53:18;4.95;;;2.65;;
23498;SDS011;11926;48.120;11.562;2023-08-01T02:56:07;6.22;;;3.08;;
23498;SDS011;11926;48.120;11.562;2023-08-01T02:58:56;4.30;;;2.90;;
23498;SDS011;11926;48.120;11.562;2023-08-01T03:01:44;4.72;;;3.03;;
23498;SDS011;11926;48.120;11.562;2023-08-01T03:04:34;4.82;;;2.70;;
23498;SDS011;11926;48.120;11.562;2023-08-01T03:07:31;5.55;;;3.17;;
23498;SDS011;11926;48.120;11.562;2023-08-01T03:10:20;5.32;;;3.28;;
23498;SDS011;11926;48.120;11.562;2023-08-01T03:13:15;5.32;;;3.50;;
23498;SDS011;11926;48.120;11.562;2023-08-01T03:16:04;7.10;;;3.55;;
23498;SDS011;11926;48.120;11.562;2023-08-01T03:18:52;5.25;;;3.15;;
23498;SDS011;11926;48.120;11.562;2023-08-01T03:21:42;6.78;;;3.00;;
23498;SDS011;11926;48.120;11.562;2023-08-01T03:24:30;7.20;;;3.40;;
23498;SDS011;11926;48.120;11.562;2023-08-01T03:27:18;8.88;;;3.53;;
23498;SDS011;11926;48.120;11.562;2023-08-01T03:30:07;5.97;;;3.50;;
23498;SDS011;11926;48.120;11.562;2023-08-01T03:32:56;5.85;;;3.75;;
23498;SDS011;11926;48.120;11.562;2023-08-01T03:35:45;5.25;;;2.88;;
23498;SDS011;11926;48.120;11.562;2023-08-01T03:38:36;5.78;;;3.60;;
23498;SDS011;11926;48.120;11.562;2023-08-01T03:41:24;6.65;;;3.70;;
23498;SDS011;11926;48.120;11.562;2023-08-01T03:44:13;7.93;;;3.30;;
23498;SDS011;11926;48.120;11.562;2023-08-01T03:47:03;8.02;;;3.95;;
23498;SDS011;11926;48.120;11.562;2023-08-01T03:49:53;7.85;;;3.85;;
23498;SDS011;11926;48.120;11.562;2023-08-01T03:52:41;7.82;;;3.60;;
23498;SDS011;11926;48.120;11.562;2023-08-01T03:55:31;6.97;;;3.72;;
23498;SDS011;11926;48.120;11.562;2023-08-01T03:58:19;7.63;;;4.20;;
23498;SDS011;11926;48.120;11.562;2023-08-01T04:01:07;5.88;;;3.63;;
23498;SDS011;11926;48.120;11.562;2023-08-01T04:03:57;6.95;;;3.80;;
23498;SDS011;11926;48.120;11.562;2023-08-01T04:06:46;6.20;;;3.97;;
23498;SDS011;11926;48.120;11.562;2023-08-01T04:09:35;6.00;;;3.70;;
23498;SDS011;11926;48.120;11.562;2023-08-01T04:12:26;9.68;;;4.20;;
23498;SDS011;11926;48.120;11.562;2023-08-01T04:15:14;5.93;;;3.65;;
23498;SDS011;11926;48.120;11.562;2023-08-01T04:18:02;6.75;;;3.90;;
23498;SDS011;11926;48.120;11.562;2023-08-01T04:20:51;7.28;;;3.80;;
23498;SDS011;11926;48.120;11.562;2023-08-01T04:23:39;5.78;;;3.65;;
23498;SDS011;11926;48.120;11.562;2023-08-01T04:26:27;6.80;;;4.22;;
23498;SDS011;11926;48.120;11.562;2023-08-01T04:29:17;8.07;;;4.25;;
23498;SDS011;11926;48.120;11.562;2023-08-01T04:32:05;6.95;;;3.92;;
23498;SDS011;11926;48.120;11.562;2023-08-01T04:34:54;9.68;;;4.63;;
23498;SDS011;11926;48.120;11.562;2023-08-01T04:37:42;7.15;;;3.83;;
23498;SDS011;11926;48.120;11.562;2023-08-01T04:40:31;6.90;;;4.35;;
23498;SDS011;11926;48.120;11.562;2023-08-01T04:43:19;8.60;;;4.20;;
23498;SDS011;11926;48.120;11.562;2023-08-01T04:46:09;9.57;;;4.60;;
23498;SDS011;11926;48.120;11.562;2023-08-01T04:49:00;9.52;;;4.72;;
23498;SDS011;11926;48.120;11.562;2023-08-01T04:51:49;10.93;;;4.57;;
23498;SDS011;11926;48.120;11.562;2023-08-01T04:54:39;7.72;;;4.10;;
23498;SDS011;11926;48.120;11.562;2023-08-01T04:57:27;8.25;;;4.35;;
23498;SDS011;11926;48.120;11.562;2023-08-01T05:00:16;8.73;;;4.88;;
23498;SDS011;11926;48.120;11.562;2023-08-01T05:03:06;10.88;;;4.45;;
23498;SDS011;11926;48.120;11.562;2023-08-01T05:05:55;9.57;;;4.38;;
23498;SDS011;11926;48.120;11.562;2023-08-01T05:08:44;8.05;;;4.35;;
23498;SDS011;11926;48.120;11.562;2023-08-01T05:11:32;13.35;;;4.95;;
23498;SDS011;11926;48.120;11.562;2023-08-01T05:14:21;9.25;;;4.55;;
23498;SDS011;11926;48.120;11.562;2023-08-01T05:17:09;9.98;;;5.07;;
23498;SDS011;11926;48.120;11.562;2023-08-01T05:19:59;10.45;;;5.10;;
23498;SDS011;11926;48.120;11.562;2023-08-01T05:22:50;10.27;;;4.95;;
23498;SDS011;11926;48.120;11.562;2023-08-01T05:25:40;7.22;;;4.72;;
23498;SDS011;11926;48.120;11.562;2023-08-01T05:28:28;8.57;;;4.85;;
23498;SDS011;11926;48.120;11.562;2023-08-01T05:31:17;11.18;;;4.55;;
23498;SDS011;11926;48.120;11.562;2023-08-01T05:34:06;9.07;;;4.50;;
23498;SDS011;11926;48.120;11.562;2023-08-01T05:36:56;7.25;;;4.65;;
23498;SDS011;11926;48.120;11.562;2023-08-01T05:39:44;7.10;;;4.35;;
23498;SDS011;11926;48.120;11.562;2023-08-01T05:42:33;16.73;;;5.50;;
23498;SDS011;11926;48.120;11.562;2023-08-01T05:45:21;7.95;;;4.43;;
23498;SDS011;11926;48.120;11.562;2023-08-01T05:48:09;8.27;;;4.68;;
23498;SDS011;11926;48.120;11.562;2023-08-01T05:51:00;7.75;;;4.10;;
23498;SDS011;11926;48.120;11.562;2023-08-01T05:53:49;7.55;;;3.65;;
23498;SDS011;11926;48.120;11.562;2023-08-01T05:56:39;8.27;;;4.03;;
23498;SDS011;11926;48.120;11.562;2023-08-01T05:59:28;9.63;;;4.45;;
23498;SDS011;11926;48.120;11.562;2023-08-01T06:02:16;9.88;;;4.70;;
23498;SDS011;11926;48.120;11.562;2023-08-01T06:05:05;7.15;;;4.30;;
23498;SDS011;11926;48.120;11.562;2023-08-01T06:07:54;7.00;;;3.70;;
23498;SDS011;11926;48.120;11.562;2023-08-01T06:10:43;7.82;;;3.97;;
23498;SDS011;11926;48.120;11.562;2023-08-01T06:13:32;8.77;;;4.10;;
23498;SDS011;11926;48.120;11.562;2023-08-01T06:16:21;7.57;;;3.83;;
23498;SDS011;11926;48.120;11.562;2023-08-01T06:19:13;7.45;;;3.92;;
23498;SDS011;11926;48.120;11.562;2023-08-01T06:22:01;7.40;;;3.67;;
23498;SDS011;11926;48.120;11.562;2023-08-01T06:24:49;6.40;;;3.95;;
23498;SDS011;11926;48.120;11.562;2023-08-01T06:27:39;9.25;;;3.65;;
23498;SDS011;11926;48.120;11.562;2023-08-01T06:30:28;6.10;;;3.80;;
23498;SDS011;11926;48.120;11.562;2023-08-01T06:33:16;9.38;;;4.30;;
23498;SDS011;11926;48.120;11.562;2023-08-01T06:36:06;8.07;;;3.92;;
23498;SDS011;11926;48.120;11.562;2023-08-01T06:38:54;9.30;;;3.67;;
23498;SDS011;11926;48.120;11.562;2023-08-01T06:41:43;7.28;;;3.65;;
23498;SDS011;11926;48.120;11.562;2023-08-01T06:44:33;10.25;;;4.03;;
23498;SDS011;11926;48.120;11.562;2023-08-01T06:47:22;5.68;;;3.42;;
23498;SDS011;11926;48.120;11.562;2023-08-01T06:50:11;6.78;;;3.60;;
23498;SDS011;11926;48.120;11.562;2023-08-01T06:52:59;7.38;;;3.50;;
23498;SDS011;11926;48.120;11.562;2023-08-01T06:55:48;6.43;;;3.40;;
23498;SDS011;11926;48.120;11.562;2023-08-01T06:58:36;8.55;;;3.47;;
23498;SDS011;11926;48.120;11.562;2023-08-01T07:01:34;5.82;;;3.17;;
23498;SDS011;11926;48.120;11.562;2023-08-01T07:04:26;5.32;;;3.17;;
23498;SDS011;11926;48.120;11.562;2023-08-01T07:07:17;5.20;;;2.92;;
23498;SDS011;11926;48.120;11.562;2023-08-01T07:10:06;5.18;;;3.30;;
23498;SDS011;11926;48.120;11.562;2023-08-01T07:12:55;5.50;;;3.05;;
23498;SDS011;11926;48.120;11.562;2023-08-01T07:15:44;7.07;;;3.00;;
23498;SDS011;11926;48.120;11.562;2023-08-01T07:18:34;7.32;;;3.10;;
23498;SDS011;11926;48.120;11.562;2023-08-01T07:21:23;6.97;;;3.33;;
23498;SDS011;11926;48.120;11.562;2023-08-01T07:24:12;11.48;;;3.20;;
23498;SDS011;11926;48.120;11.562;2023-08-01T07:27:01;5.90;;;2.42;;
23498;SDS011;11926;48.120;11.562;2023-08-01T07:29:50;4.75;;;2.75;;
23498;SDS011;11926;48.120;11.562;2023-08-01T07:32:39;6.70;;;3.05;;
23498;SDS011;11926;48.120;11.562;2023-08-01T07:35:30;5.13;;;2.92;;
23498;SDS011;11926;48.120;11.562;2023-08-01T07:38:18;6.05;;;2.63;;
23498;SDS011;11926;48.120;11.562;2023-08-01T07:41:07;8.18;;;3.30;;
23498;SDS011;11926;48.120;11.562;2023-08-01T07:43:56;5.35;;;2.90;;
23498;SDS011;11926;48.120;11.562;2023-08-01T07:46:46;6.63;;;2.88;;
23498;SDS011;11926;48.120;11.562;2023-08-01T07:49:36;6.35;;;2.60;;
23498;SDS011;11926;48.120;11.562;2023-08-01T07:52:27;5.38;;;2.55;;
23498;SDS011;11926;48.120;11.562;2023-08-01T07:55:16;8.05;;;3.17;;
23498;SDS011;11926;48.120;11.562;2023-08-01T07:58:07;7.00;;;2.85;;
23498;SDS011;11926;48.120;11.562;2023-08-01T08:00:57;6.57;;;2.92;;
23498;SDS011;11926;48.120;11.562;2023-08-01T08:03:50;6.75;;;2.58;;
23498;SDS011;11926;48.120;11.562;2023-08-01T08:06:40;4.85;;;2.40;;
23498;SDS011;11926;48.120;11.562;2023-08-01T08:09:30;6.97;;;3.40;;
23498;SDS011;11926;48.120;11.562;2023-08-01T08:12:18;4.78;;;2.90;;
23498;SDS011;11926;48.120;11.562;2023-08-01T08:15:07;5.57;;;2.90;;
23498;SDS011;11926;48.120;11.562;2023-08-01T08:17:55;5.75;;;2.42;;
23498;SDS011;11926;48.120;11.562;2023-08-01T08:20:44;6.45;;;3.25;;
23498;SDS011;11926;48.120;11.562;2023-08-01T08:23:33;5.47;;;3.15;;
23498;SDS011;11926;48.120;11.562;2023-08-01T08:26:25;7.10;;;3.15;;
23498;SDS011;11926;48.120;11.562;2023-08-01T08:29:14;4.20;;;2.60;;
23498;SDS011;11926;48.120;11.562;2023-08-01T08:32:03;5.85;;;3.08;;
23498;SDS011;11926;48.120;11.562;2023-08-01T08:34:52;4.75;;;2.50;;
23498;SDS011;11926;48.120;11.562;2023-08-01T08:37:40;5.72;;;3.10;;
23498;SDS011;11926;48.120;11.562;2023-08-01T08:40:28;6.97;;;3.03;;
23498;SDS011;11926;48.120;11.562;2023-08-01T08:43:18;5.90;;;3.03;;
23498;SDS011;11926;48.120;11.562;2023-08-01T08:46:08;7.35;;;3.08;;
23498;SDS011;11926;48.120;11.562;2023-08-01T08:48:57;4.78;;;2.72;;
23498;SDS011;11926;48.120;11.562;2023-08-01T08:51:47;5.90;;;3.60;;
23498;SDS011;11926;48.120;11.562;2023-08-01T08:54:37;5.68;;;3.10;;
23498;SDS011;11926;48.120;11.562;2023-08-01T08:57:27;5.18;;;3.15;;
23498;SDS011;11926;48.120;11.562;2023-08-01T09:00:19;5.47;;;3.17;;
23498;SDS011;11926;48.120;11.562;2023-08-01T09:03:08;5.78;;;2.85;;
23498;SDS011;11926;48.120;11.562;2023-08-01T09:06:00;5.55;;;3.15;;
23498;SDS011;11926;48.120;11.562;2023-08-01T09:08:58;6.93;;;3.22;;
23498;SDS011;11926;48.120;11.562;2023-08-01T09:11:52;5.25;;;2.90;;
23498;SDS011;11926;48.120;11.562;2023-08-01T09:14:42;7.00;;;3.22;;
23498;SDS011;11926;48.120;11.562;2023-08-01T09:17:33;6.65;;;3.42;;
23498;SDS011;11926;48.120;11.562;2023-08-01T09:20:22;6.10;;;3.30;;
23498;SDS011;11926;48.120;11.562;2023-08-01T09:23:11;7.32;;;3.53;;
23498;SDS011;11926;48.120;11.562;2023-08-01T09:26:00;6.38;;;3.20;;
23498;SDS011;11926;48.120;11.562;2023-08-01T09:28:55;6.78;;;3.30;;
23498;SDS011;11926;48.120;11.562;2023-08-01T09:31:44;8.02;;;3.42;;
23498;SDS011;11926;48.120;11.562;2023-08-01T09:34:35;9.30;;;4.20;;
23498;SDS011;11926;48.120;11.562;2023-08-01T09:37:24;6.07;;;3.53;;
23498;SDS011;11926;48.120;11.562;2023-08-01T09:40:13;5.97;;;3.58;;
23498;SDS011;11926;48.120;11.562;2023-08-01T09:43:02;6.03;;;3.83;;
23498;SDS011;11926;48.120;11.562;2023-08-01T09:45:52;6.63;;;3.95;;
23498;SDS011;11926;48.120;11.562;2023-08-01T09:48:42;7.38;;;3.40;;
23498;SDS011;11926;48.120;11.562;2023-08-01T09:51:32;7.25;;;3.33;;
23498;SDS011;11926;48.120;11.562;2023-08-01T09:54:21;5.40;;;3.40;;
23498;SDS011;11926;48.120;11.562;2023-08-01T09:57:09;7.28;;;3.47;;
23498;SDS011;11926;48.120;11.562;2023-08-01T09:59:59;7.30;;;3.38;;
23498;SDS011;11926;48.120;11.562;2023-08-01T10:02:57;10.73;;;3.80;;
23498;SDS011;11926;48.120;11.562;2023-08-01T10:05:47;8.15;;;3.00;;
23498;SDS011;11926;48.120;11.562;2023-08-01T10:08:38;7.65;;;3.28;;
23498;SDS011;11926;48.120;11.562;2023-08-01T10:11:28;5.32;;;3.03;;
23498;SDS011;11926;48.120;11.562;2023-08-01T10:14:21;7.97;;;3.05;;
23498;SDS011;11926;48.120;11.562;2023-08-01T10:17:10;7.72;;;2.97;;
23498;SDS011;11926;48.120;11.562;2023-08-01T10:19:59;6.38;;;2.97;;
23498;SDS011;11926;48.120;11.562;2023-08-01T10:22:49;7.32;;;3.42;;
23498;SDS011;11926;48.120;11.562;2023-08-01T10:25:41;5.22;;;3.15;;
23498;SDS011;11926;48.120;11.562;2023-08-01T10:28:31;6.03;;;3.28;;
23498;SDS011;11926;48.120;11.562;2023-08-01T10:31:20;5.20;;;3.15;;
23498;SDS011;11926;48.120;11.562;2023-08-01T10:34:12;5.78;;;2.95;;
23498;SDS011;11926;48.120;11.562;2023-08-01T10:37:01;4.90;;;2.88;;
23498;SDS011;11926;48.120;11.562;2023-08-01T10:39:56;10.10;;;3.65;;
23498;SDS011;11926;48.120;11.562;2023-08-01T10:42:47;5.00;;;2.88;;
23498;SDS011;11926;48.120;11.562;2023-08-01T10:45:36;6.80;;;2.95;;
23498;SDS011;11926;48.120;11.562;2023-08-01T10:48:25;4.93;;;3.22;;
23498;SDS011;11926;48.120;11.562;2023-08-01T10:51:14;9.57;;;3.10;;
23498;SDS011;11926;48.120;11.562;2023-08-01T10:54:02;6.80;;;3.58;;
23498;SDS011;11926;48.120;11.562;2023-08-01T10:56:51;6.07;;;3.30;;
23498;SDS011;11926;48.120;11.562;2023-08-01T10:59:42;5.88;;;2.90;;
23498;SDS011;11926;48.120;11.562;2023-08-01T11:02:32;6.35;;;2.70;;
23498;SDS011;11926;48.120;11.562;2023-08-01T11:05:21;6.22;;;3.33;;
23498;SDS011;11926;48.120;11.562;2023-08-01T11:08:12;5.57;;;3.13;;
23498;SDS011;11926;48.120;11.562;2023-08-01T11:11:01;6.68;;;2.75;;
23498;SDS011;11926;48.120;11.562;2023-08-01T11:13:53;12.60;;;2.83;;
23498;SDS011;11926;48.120;11.562;2023-08-01T11:16:44;4.45;;;2.45;;
23498;SDS011;11926;48.120;11.562;2023-08-01T11:19:32;6.10;;;1.98;;
23498;SDS011;11926;48.120;11.562;2023-08-01T11:22:21;3.72;;;2.20;;
23498;SDS011;11926;48.120;11.562;2023-08-01T11:25:10;4.47;;;2.22;;
23498;SDS011;11926;48.120;11.562;2023-08-01T11:28:01;4.90;;;2.20;;
23498;SDS011;11926;48.120;11.562;2023-08-01T11:30:52;3.88;;;2.00;;
23498;SDS011;11926;48.120;11.562;2023-08-01T11:33:42;5.53;;;2.28;;
23498;SDS011;11926;48.120;11.562;2023-08-01T11:36:42;3.92;;;2.08;;
23498;SDS011;11926;48.120;11.562;2023-08-01T11:39:32;4.28;;;2.28;;
23498;SDS011;11926;48.120;11.562;2023-08-01T11:42:21;4.13;;;2.35;;
23498;SDS011;11926;48.120;11.562;2023-08-01T11:45:10;4.15;;;2.50;;
23498;SDS011;11926;48.120;11.562;2023-08-01T11:47:59;4.38;;;2.40;;
23498;SDS011;11926;48.120;11.562;2023-08-01T11:50:55;4.47;;;2.47;;
23498;SDS011;11926;48.120;11.562;2023-08-01T11:53:57;6.00;;;2.55;;
23498;SDS011;11926;48.120;11.562;2023-08-01T11:56:47;4.00;;;2.20;;
23498;SDS011;11926;48.120;11.562;2023-08-01T11:59:45;7.10;;;2.80;;
23498;SDS011;11926;48.120;11.562;2023-08-01T12:02:37;4.13;;;2.28;;
23498;SDS011;11926;48.120;11.562;2023-08-01T12:05:25;7.18;;;2.40;;
23498;SDS011;11926;48.120;11.562;2023-08-01T12:08:15;5.90;;;2.58;;
23498;SDS011;11926;48.120;11.562;2023-08-01T12:11:04;5.18;;;2.38;;
23498;SDS011;11926;48.120;11.562;2023-08-01T12:14:00;3.78;;;2.05;;
23498;SDS011;11926;48.120;11.562;2023-08-01T12:16:51;4.50;;;2.30;;
23498;SDS011;11926;48.120;11.562;2023-08-01T12:19:39;6.03;;;2.28;;
23498;SDS011;11926;48.120;11.562;2023-08-01T12:22:27;3.47;;;2.08;;
23498;SDS011;11926;48.120;11.562;2023-08-01T12:25:17;3.92;;;2.00;;
23498;SDS011;11926;48.120;11.562;2023-08-01T12:28:06;3.15;;;1.90;;
23498;SDS011;11926;48.120;11.562;2023-08-01T12:30:54;5.50;;;2.35;;
23498;SDS011;11926;48.120;11.562;2023-08-01T12:33:45;4.28;;;1.95;;
23498;SDS011;11926;48.120;11.562;2023-08-01T12:36:34;5.38;;;2.17;;
23498;SDS011;11926;48.120;11.562;2023-08-01T12:39:24;4.28;;;1.90;;
23498;SDS011;11926;48.120;11.562;2023-08-01T12:42:14;3.85;;;1.77;;
23498;SDS011;11926;48.120;11.562;2023-08-01T12:45:03;4.25;;;2.10;;
23498;SDS011;11926;48.120;11.562;2023-08-01T12:47:52;5.13;;;2.28;;
23498;SDS011;11926;48.120;11.562;2023-08-01T12:50:43;4.22;;;1.90;;
23498;SDS011;11926;48.120;11.562;2023-08-01T12:53:33;4.15;;;1.88;;
23498;SDS011;11926;48.120;11.562;2023-08-01T12:56:26;5.07;;;2.05;;
23498;SDS011;11926;48.120;11.562;2023-08-01T12:59:16;4.97;;;2.28;;
23498;SDS011;11926;48.120;11.562;2023-08-01T13:02:05;7.45;;;2.42;;
23498;SDS011;11926;48.120;11.562;2023-08-01T13:04:54;6.53;;;2.05;;
23498;SDS011;11926;48.120;11.562;2023-08-01T13:07:44;3.75;;;1.67;;
23498;SDS011;11926;48.120;11.562;2023-08-01T13:10:33;3.05;;;1.80;;
23498;SDS011;11926;48.120;11.562;2023-08-01T13:13:22;4.25;;;2.10;;
23498;SDS011;11926;48.120;11.562;2023-08-01T13:16:12;3.00;;;1.90;;
23498;SDS011;11926;48.120;11.562;2023-08-01T13:19:01;5.32;;;1.90;;
23498;SDS011;11926;48.120;11.562;2023-08-01T13:21:49;5.50;;;1.90;;
23498;SDS011;11926;48.120;11.562;2023-08-01T13:24:38;4.55;;;1.70;;
23498;SDS011;11926;48.120;11.562;2023-08-01T13:27:26;3.70;;;2.25;;
23498;SDS011;11926;48.120;11.562;2023-08-01T13:30:15;3.38;;;1.92;;
23498;SDS011;11926;48.120;11.562;2023-08-01T13:33:06;4.55;;;2.40;;
23498;SDS011;11926;48.120;11.562;2023-08-01T13:35:54;4.22;;;2.10;;
23498;SDS011;11926;48.120;11.562;2023-08-01T13:38:44;3.95;;;2.30;;
23498;SDS011;11926;48.120;11.562;2023-08-01T13:41:32;3.65;;;2.08;;
23498;SDS011;11926;48.120;11.562;2023-08-01T13:44:21;5.35;;;2.47;;
23498;SDS011;11926;48.120;11.562;2023-08-01T13:47:11;4.50;;;2.15;;
23498;SDS011;11926;48.120;11.562;2023-08-01T13:50:00;2.83;;;1.80;;
23498;SDS011;11926;48.120;11.562;2023-08-01T13:52:49;5.78;;;2.45;;
23498;SDS011;11926;48.120;11.562;2023-08-01T13:55:37;3.17;;;2.00;;
23498;SDS011;11926;48.120;11.562;2023-08-01T13:58:26;3.08;;;2.00;;
23498;SDS011;11926;48.120;11.562;2023-08-01T14:01:14;3.70;;;2.25;;
23498;SDS011;11926;48.120;11.562;2023-08-01T14:04:05;3.78;;;2.03;;
23498;SDS011;11926;48.120;11.562;2023-08-01T14:06:54;5.35;;;2.05;;
23498;SDS011;11926;48.120;11.562;2023-08-01T14:09:43;4.03;;;2.00;;
23498;SDS011;11926;48.120;11.562;2023-08-01T14:12:35;3.88;;;2.05;;
23498;SDS011;11926;48.120;11.562;2023-08-01T14:15:38;4.53;;;2.13;;
23498;SDS011;11926;48.120;11.562;2023-08-01T14:18:27;5.30;;;2.10;;
23498;SDS011;11926;48.120;11.562;2023-08-01T14:21:16;3.58;;;2.15;;
23498;SDS011;11926;48.120;11.562;2023-08-01T14:24:06;4.40;;;2.30;;
23498;SDS011;11926;48.120;11.562;2023-08-01T14:26:54;6.20;;;2.40;;
23498;SDS011;11926;48.120;11.562;2023-08-01T14:29:43;5.22;;;2.40;;
23498;SDS011;11926;48.120;11.562;2023-08-01T14:32:31;5.88;;;2.55;;
23498;SDS011;11926;48.120;11.562;2023-08-01T14:35:20;5.68;;;2.47;;
23498;SDS011;11926;48.120;11.562;2023-08-01T14:38:07;4.75;;;1.90;;
23498;SDS011;11926;48.120;11.562;2023-08-01T14:40:58;3.33;;;1.48;;
23498;SDS011;11926;48.120;11.562;2023-08-01T14:44:03;3.15;;;1.50;;
23498;SDS011;11926;48.120;11.562;2023-08-01T14:46:53;3.95;;;1.27;;
23498;SDS011;11926;48.120;11.562;2023-08-01T14:49:43;2.50;;;1.38;;
23498;SDS011;11926;48.120;11.562;2023-08-01T14:52:31;2.30;;;1.20;;
23498;SDS011;11926;48.120;11.562;2023-08-01T14:55:20;2.45;;;1.30;;
23498;SDS011;11926;48.120;11.562;2023-08-01T14:58:09;2.83;;;1.30;;
23498;SDS011;11926;48.120;11.562;2023-08-01T15:00:57;4.07;;;1.33;;
23498;SDS011;11926;48.120;11.562;2023-08-01T15:03:46;2.45;;;1.30;;
23498;SDS011;11926;48.120;11.562;2023-08-01T15:06:34;3.28;;;1.20;;
23498;SDS011;11926;48.120;11.562;2023-08-01T15:09:22;4.82;;;1.80;;
23498;SDS011;11926;48.120;11.562;2023-08-01T15:12:11;4.65;;;1.60;;
23498;SDS011;11926;48.120;11.562;2023-08-01T15:15:01;4.15;;;1.70;;
23498;SDS011;11926;48.120;11.562;2023-08-01T15:17:50;6.13;;;1.63;;
23498;SDS011;11926;48.120;11.562;2023-08-01T15:20:40;3.65;;;1.15;;
23498;SDS011;11926;48.120;11.562;2023-08-01T15:23:28;3.47;;;1.23;;
23498;SDS011;11926;48.120;11.562;2023-08-01T15:26:16;5.93;;;2.08;;
23498;SDS011;11926;48.120;11.562;2023-08-01T15:29:06;4.13;;;1.77;;
23498;SDS011;11926;48.120;11.562;2023-08-01T15:31:55;2.78;;;1.40;;
23498;SDS011;11926;48.120;11.562;2023-08-01T15:34:44;3.15;;;0.90;;
23498;SDS011;11926;48.120;11.562;2023-08-01T15:37:33;1.77;;;1.05;;
23498;SDS011;11926;48.120;11.562;2023-08-01T15:40:21;2.38;;;1.05;;
23498;SDS011;11926;48.120;11.562;2023-08-01T15:43:13;6.20;;;1.50;;
23498;SDS011;11926;48.120;11.562;2023-08-01T15:46:02;2.13;;;1.00;;
23498;SDS011;11926;48.120;11.562;2023-08-01T15:48:53;3.72;;;1.25;;
23498;SDS011;11926;48.120;11.562;2023-08-01T15:51:42;4.13;;;0.93;;
23498;SDS011;11926;48.120;11.562;2023-08-01T15:54:30;3.58;;;1.17;;
23498;SDS011;11926;48.120;11.562;2023-08-01T15:57:19;1.95;;;1.00;;
23498;SDS011;11926;48.120;11.562;2023-08-01T16:00:07;2.40;;;0.95;;
23498;SDS011;11926;48.120;11.562;2023-08-01T16:02:59;4.57;;;0.95;;
23498;SDS011;11926;48.120;11.562;2023-08-01T16:05:52;2.65;;;1.15;;
23498;SDS011;11926;48.120;11.562;2023-08-01T16:08:41;3.10;;;0.88;;
23498;SDS011;11926;48.120;11.562;2023-08-01T16:11:30;1.85;;;0.90;;
23498;SDS011;11926;48.120;11.562;2023-08-01T16:14:19;2.65;;;0.93;;
23498;SDS011;11926;48.120;11.562;2023-08-01T16:17:26;2.58;;;1.00;;
23498;SDS011;11926;48.120;11.562;2023-08-01T16:20:14;1.75;;;1.00;;
23498;SDS011;11926;48.120;11.562;2023-08-01T16:23:06;2.53;;;0.95;;
23498;SDS011;11926;48.120;11.562;2023-08-01T16:25:55;1.55;;;0.82;;
23498;SDS011;11926;48.120;11.562;2023-08-01T16:28:46;3.28;;;1.00;;
23498;SDS011;11926;48.120;11.562;2023-08-01T16:31:34;2.58;;;0.80;;
23498;SDS011;11926;48.120;11.562;2023-08-01T16:34:23;2.75;;;1.25;;
23498;SDS011;11926;48.120;11.562;2023-08-01T16:37:11;1.73;;;0.90;;
23498;SDS011;11926;48.120;11.562;2023-08-01T16:40:01;2.10;;;0.90;;
23498;SDS011;11926;48.120;11.562;2023-08-01T16:42:50;1.00;;;0.63;;
23498;SDS011;11926;48.120;11.562;2023-08-01T16:45:39;3.10;;;1.10;;
23498;SDS011;11926;48.120;11.562;2023-08-01T16:48:28;3.25;;;0.90;;